sensor_id;sensor_type;location;lat;lon;timestamp;P1;durP1;ratioP1;P2;durP2;ratioP2
16979;SDS011;42288;52.182;21.156;2023-05-10T00:00:50;17.43;;;7.13;;
16979;SDS011;42288;52.182;21.156;2023-05-10T00:03:16;12.97;;;6.40;;
16979;SDS011;42288;52.182;21.156;2023-05-10T00:05:41;12.37;;;5.97;;
16979;SDS011;42288;52.182;21.156;2023-05-10T00:08:07;17.60;;;7.97;;
16979;SDS011;42288;52.182;21.156;2023-05-10T00:10:33;15.17;;;7.43;;
16979;SDS011;42288;52.182;21.156;2023-05-10T00:12:58;14.87;;;6.47;;
16979;SDS011;42288;52.182;21.156;2023-05-10T00:15:24;14.10;;;6.63;;
16979;SDS011;42288;52.182;21.156;2023-05-10T00:17:50;11.70;;;6.00;;
16979;SDS011;42288;52.182;21.156;2023-05-10T00:20:15;11.03;;;6.13;;
16979;SDS011;42288;52.182;21.156;2023-05-10T00:22:41;11.30;;;6.30;;
16979;SDS011;42288;52.182;21.156;2023-05-10T00:25:07;14.33;;;6.03;;
16979;SDS011;42288;52.182;21.156;2023-05-10T00:27:33;13.43;;;6.40;;
16979;SDS011;42288;52.182;21.156;2023-05-10T00:29:59;12.87;;;6.17;;
16979;SDS011;42288;52.182;21.156;2023-05-10T00:32:24;11.83;;;6.33;;
16979;SDS011;42288;52.182;21.156;2023-05-10T00:34:50;14.20;;;6.30;;
16979;SDS011;42288;52.182;21.156;2023-05-10T00:37:15;11.90;;;5.97;;
16979;SDS011;42288;52.182;21.156;2023-05-10T00:39:41;12.00;;;6.00;;
16979;SDS011;42288;52.182;21.156;2023-05-10T00:42:06;13.50;;;5.70;;
16979;SDS011;42288;52.182;21.156;2023-05-10T00:44:32;12.67;;;6.10;;
16979;SDS011;42288;52.182;21.156;2023-05-10T00:46:57;16.13;;;6.53;;
16979;SDS011;42288;52.182;21.156;2023-05-10T00:49:24;11.93;;;5.83;;
16979;SDS011;42288;52.182;21.156;2023-05-10T00:51:50;10.77;;;5.97;;
16979;SDS011;42288;52.182;21.156;2023-05-10T00:54:16;12.07;;;6.07;;
16979;SDS011;42288;52.182;21.156;2023-05-10T00:56:42;13.50;;;5.60;;
16979;SDS011;42288;52.182;21.156;2023-05-10T00:59:13;9.00;;;5.03;;
16979;SDS011;42288;52.182;21.156;2023-05-10T01:01:41;13.37;;;6.07;;
16979;SDS011;42288;52.182;21.156;2023-05-10T01:04:07;14.97;;;6.17;;
16979;SDS011;42288;52.182;21.156;2023-05-10T01:06:34;12.27;;;5.87;;
16979;SDS011;42288;52.182;21.156;2023-05-10T01:09:00;11.50;;;5.10;;
16979;SDS011;42288;52.182;21.156;2023-05-10T01:11:26;15.33;;;5.50;;
16979;SDS011;42288;52.182;21.156;2023-05-10T01:13:53;13.13;;;5.83;;
16979;SDS011;42288;52.182;21.156;2023-05-10T01:16:21;12.50;;;5.90;;
16979;SDS011;42288;52.182;21.156;2023-05-10T01:18:48;10.67;;;5.73;;
16979;SDS011;42288;52.182;21.156;2023-05-10T01:21:27;10.50;;;5.20;;
16979;SDS011;42288;52.182;21.156;2023-05-10T01:32:24;11.47;;;5.80;;
16979;SDS011;42288;52.182;21.156;2023-05-10T01:35:08;9.50;;;5.00;;
16979;SDS011;42288;52.182;21.156;2023-05-10T01:40:42;12.60;;;5.60;;
16979;SDS011;42288;52.182;21.156;2023-05-10T01:43:30;13.23;;;5.93;;
16979;SDS011;42288;52.182;21.156;2023-05-10T01:46:09;9.63;;;4.97;;
16979;SDS011;42288;52.182;21.156;2023-05-10T01:48:50;8.47;;;5.03;;
16979;SDS011;42288;52.182;21.156;2023-05-10T01:51:22;10.80;;;5.13;;
16979;SDS011;42288;52.182;21.156;2023-05-10T01:53:51;9.77;;;5.50;;
16979;SDS011;42288;52.182;21.156;2023-05-10T01:56:24;10.50;;;5.20;;
16979;SDS011;42288;52.182;21.156;2023-05-10T01:58:52;10.70;;;5.67;;
16979;SDS011;42288;52.182;21.156;2023-05-10T02:01:20;10.77;;;5.23;;
16979;SDS011;42288;52.182;21.156;2023-05-10T02:03:46;10.23;;;5.57;;
16979;SDS011;42288;52.182;21.156;2023-05-10T02:06:14;11.13;;;5.47;;
16979;SDS011;42288;52.182;21.156;2023-05-10T02:08:43;9.33;;;5.13;;
16979;SDS011;42288;52.182;21.156;2023-05-10T02:11:12;9.40;;;4.70;;
16979;SDS011;42288;52.182;21.156;2023-05-10T02:13:38;13.37;;;5.00;;
16979;SDS011;42288;52.182;21.156;2023-05-10T02:16:06;8.73;;;5.20;;
16979;SDS011;42288;52.182;21.156;2023-05-10T02:18:33;10.70;;;5.37;;
16979;SDS011;42288;52.182;21.156;2023-05-10T02:21:00;9.77;;;5.10;;
16979;SDS011;42288;52.182;21.156;2023-05-10T02:23:27;9.27;;;4.87;;
16979;SDS011;42288;52.182;21.156;2023-05-10T02:25:54;14.77;;;4.80;;
16979;SDS011;42288;52.182;21.156;2023-05-10T02:28:21;9.30;;;4.90;;
16979;SDS011;42288;52.182;21.156;2023-05-10T02:30:49;9.33;;;4.53;;
16979;SDS011;42288;52.182;21.156;2023-05-10T02:33:16;10.83;;;4.77;;
16979;SDS011;42288;52.182;21.156;2023-05-10T02:35:42;9.90;;;5.23;;
16979;SDS011;42288;52.182;21.156;2023-05-10T02:38:08;11.50;;;4.83;;
16979;SDS011;42288;52.182;21.156;2023-05-10T02:40:36;12.67;;;4.93;;
16979;SDS011;42288;52.182;21.156;2023-05-10T02:43:03;13.83;;;5.40;;
16979;SDS011;42288;52.182;21.156;2023-05-10T02:45:31;12.53;;;5.40;;
16979;SDS011;42288;52.182;21.156;2023-05-10T02:47:59;9.73;;;5.37;;
16979;SDS011;42288;52.182;21.156;2023-05-10T02:50:28;10.37;;;5.47;;
16979;SDS011;42288;52.182;21.156;2023-05-10T02:52:59;8.90;;;4.33;;
16979;SDS011;42288;52.182;21.156;2023-05-10T02:55:27;9.67;;;5.00;;
16979;SDS011;42288;52.182;21.156;2023-05-10T02:58:00;10.40;;;4.87;;
16979;SDS011;42288;52.182;21.156;2023-05-10T03:00:27;8.67;;;4.60;;
16979;SDS011;42288;52.182;21.156;2023-05-10T03:02:53;6.70;;;4.30;;
16979;SDS011;42288;52.182;21.156;2023-05-10T03:05:19;8.97;;;4.43;;
16979;SDS011;42288;52.182;21.156;2023-05-10T03:07:45;7.30;;;4.50;;
16979;SDS011;42288;52.182;21.156;2023-05-10T03:10:11;14.33;;;5.10;;
16979;SDS011;42288;52.182;21.156;2023-05-10T03:12:57;9.20;;;4.97;;
16979;SDS011;42288;52.182;21.156;2023-05-10T03:21:08;9.97;;;4.40;;
16979;SDS011;42288;52.182;21.156;2023-05-10T03:23:41;10.57;;;5.27;;
16979;SDS011;42288;52.182;21.156;2023-05-10T03:26:12;9.67;;;4.70;;
16979;SDS011;42288;52.182;21.156;2023-05-10T03:28:49;9.17;;;5.17;;
16979;SDS011;42288;52.182;21.156;2023-05-10T03:31:15;11.87;;;5.03;;
16979;SDS011;42288;52.182;21.156;2023-05-10T03:33:45;13.47;;;5.07;;
16979;SDS011;42288;52.182;21.156;2023-05-10T03:36:12;12.20;;;5.40;;
16979;SDS011;42288;52.182;21.156;2023-05-10T03:38:38;12.57;;;5.63;;
16979;SDS011;42288;52.182;21.156;2023-05-10T03:41:03;18.63;;;5.23;;
16979;SDS011;42288;52.182;21.156;2023-05-10T03:43:29;11.00;;;5.30;;
16979;SDS011;42288;52.182;21.156;2023-05-10T03:45:54;12.20;;;5.47;;
16979;SDS011;42288;52.182;21.156;2023-05-10T03:48:20;12.53;;;4.77;;
16979;SDS011;42288;52.182;21.156;2023-05-10T03:50:45;12.43;;;5.80;;
16979;SDS011;42288;52.182;21.156;2023-05-10T03:53:11;9.80;;;4.87;;
16979;SDS011;42288;52.182;21.156;2023-05-10T03:55:37;8.93;;;5.17;;
16979;SDS011;42288;52.182;21.156;2023-05-10T03:58:03;10.43;;;5.00;;
16979;SDS011;42288;52.182;21.156;2023-05-10T04:00:28;8.73;;;4.43;;
16979;SDS011;42288;52.182;21.156;2023-05-10T04:02:55;12.03;;;5.47;;
16979;SDS011;42288;52.182;21.156;2023-05-10T04:05:20;10.97;;;5.23;;
16979;SDS011;42288;52.182;21.156;2023-05-10T04:07:46;11.53;;;5.30;;
16979;SDS011;42288;52.182;21.156;2023-05-10T04:10:12;14.73;;;5.00;;
16979;SDS011;42288;52.182;21.156;2023-05-10T04:12:37;8.93;;;5.07;;
16979;SDS011;42288;52.182;21.156;2023-05-10T04:15:03;11.00;;;4.70;;
16979;SDS011;42288;52.182;21.156;2023-05-10T04:17:29;10.50;;;5.10;;
16979;SDS011;42288;52.182;21.156;2023-05-10T04:19:55;11.37;;;4.70;;
16979;SDS011;42288;52.182;21.156;2023-05-10T04:22:21;13.00;;;5.40;;
16979;SDS011;42288;52.182;21.156;2023-05-10T04:24:46;10.67;;;4.67;;
16979;SDS011;42288;52.182;21.156;2023-05-10T04:27:12;11.00;;;5.07;;
16979;SDS011;42288;52.182;21.156;2023-05-10T04:29:37;14.10;;;5.00;;
16979;SDS011;42288;52.182;21.156;2023-05-10T04:32:03;8.57;;;4.57;;
16979;SDS011;42288;52.182;21.156;2023-05-10T04:34:29;10.10;;;4.50;;
16979;SDS011;42288;52.182;21.156;2023-05-10T04:36:54;11.20;;;5.00;;
16979;SDS011;42288;52.182;21.156;2023-05-10T04:39:20;9.47;;;4.60;;
16979;SDS011;42288;52.182;21.156;2023-05-10T04:41:45;11.77;;;4.93;;
16979;SDS011;42288;52.182;21.156;2023-05-10T04:44:11;8.33;;;4.47;;
16979;SDS011;42288;52.182;21.156;2023-05-10T04:46:37;9.00;;;4.67;;
16979;SDS011;42288;52.182;21.156;2023-05-10T04:49:02;14.50;;;4.80;;
16979;SDS011;42288;52.182;21.156;2023-05-10T04:51:28;7.67;;;3.63;;
16979;SDS011;42288;52.182;21.156;2023-05-10T04:53:53;9.27;;;4.13;;
16979;SDS011;42288;52.182;21.156;2023-05-10T04:56:19;8.30;;;4.67;;
16979;SDS011;42288;52.182;21.156;2023-05-10T04:58:45;8.63;;;4.20;;
16979;SDS011;42288;52.182;21.156;2023-05-10T05:01:10;8.40;;;4.07;;
16979;SDS011;42288;52.182;21.156;2023-05-10T05:03:36;8.73;;;4.30;;
16979;SDS011;42288;52.182;21.156;2023-05-10T05:06:02;13.57;;;4.30;;
16979;SDS011;42288;52.182;21.156;2023-05-10T05:08:28;7.77;;;4.20;;
16979;SDS011;42288;52.182;21.156;2023-05-10T05:10:53;12.47;;;4.73;;
16979;SDS011;42288;52.182;21.156;2023-05-10T05:13:19;8.00;;;3.97;;
16979;SDS011;42288;52.182;21.156;2023-05-10T05:15:45;11.03;;;4.00;;
16979;SDS011;42288;52.182;21.156;2023-05-10T05:18:10;11.37;;;3.77;;
16979;SDS011;42288;52.182;21.156;2023-05-10T05:20:36;10.27;;;4.00;;
16979;SDS011;42288;52.182;21.156;2023-05-10T05:23:01;7.57;;;3.77;;
16979;SDS011;42288;52.182;21.156;2023-05-10T05:25:27;12.30;;;4.33;;
16979;SDS011;42288;52.182;21.156;2023-05-10T05:27:53;10.43;;;4.13;;
16979;SDS011;42288;52.182;21.156;2023-05-10T05:30:18;8.33;;;3.67;;
16979;SDS011;42288;52.182;21.156;2023-05-10T05:32:44;13.30;;;3.97;;
16979;SDS011;42288;52.182;21.156;2023-05-10T05:35:11;10.87;;;4.20;;
16979;SDS011;42288;52.182;21.156;2023-05-10T05:37:37;10.90;;;4.13;;
16979;SDS011;42288;52.182;21.156;2023-05-10T05:40:03;6.20;;;3.37;;
16979;SDS011;42288;52.182;21.156;2023-05-10T05:42:30;8.77;;;4.03;;
16979;SDS011;42288;52.182;21.156;2023-05-10T05:44:56;6.17;;;3.10;;
16979;SDS011;42288;52.182;21.156;2023-05-10T05:47:22;6.47;;;3.10;;
16979;SDS011;42288;52.182;21.156;2023-05-10T05:49:47;10.77;;;4.00;;
16979;SDS011;42288;52.182;21.156;2023-05-10T05:52:13;8.23;;;3.57;;
16979;SDS011;42288;52.182;21.156;2023-05-10T05:54:39;10.03;;;3.50;;
16979;SDS011;42288;52.182;21.156;2023-05-10T05:57:04;14.53;;;3.63;;
16979;SDS011;42288;52.182;21.156;2023-05-10T05:59:30;12.90;;;3.80;;
16979;SDS011;42288;52.182;21.156;2023-05-10T06:01:55;11.27;;;3.00;;
16979;SDS011;42288;52.182;21.156;2023-05-10T06:04:21;8.17;;;2.97;;
16979;SDS011;42288;52.182;21.156;2023-05-10T06:06:47;9.83;;;2.90;;
16979;SDS011;42288;52.182;21.156;2023-05-10T06:09:12;9.10;;;3.80;;
16979;SDS011;42288;52.182;21.156;2023-05-10T06:11:38;6.30;;;2.73;;
16979;SDS011;42288;52.182;21.156;2023-05-10T06:14:04;12.00;;;3.37;;
16979;SDS011;42288;52.182;21.156;2023-05-10T06:16:31;8.63;;;3.10;;
16979;SDS011;42288;52.182;21.156;2023-05-10T06:18:57;6.83;;;3.20;;
16979;SDS011;42288;52.182;21.156;2023-05-10T06:21:23;8.10;;;2.93;;
16979;SDS011;42288;52.182;21.156;2023-05-10T06:23:48;8.97;;;3.03;;
16979;SDS011;42288;52.182;21.156;2023-05-10T06:26:14;12.37;;;3.20;;
16979;SDS011;42288;52.182;21.156;2023-05-10T06:28:40;8.57;;;3.10;;
16979;SDS011;42288;52.182;21.156;2023-05-10T06:31:06;11.93;;;3.13;;
16979;SDS011;42288;52.182;21.156;2023-05-10T06:33:31;6.07;;;3.00;;
16979;SDS011;42288;52.182;21.156;2023-05-10T06:35:57;6.23;;;2.80;;
16979;SDS011;42288;52.182;21.156;2023-05-10T06:38:23;9.90;;;3.00;;
16979;SDS011;42288;52.182;21.156;2023-05-10T06:40:49;7.47;;;3.00;;
16979;SDS011;42288;52.182;21.156;2023-05-10T06:43:15;5.90;;;2.77;;
16979;SDS011;42288;52.182;21.156;2023-05-10T06:45:40;8.77;;;3.40;;
16979;SDS011;42288;52.182;21.156;2023-05-10T06:48:06;6.53;;;2.70;;
16979;SDS011;42288;52.182;21.156;2023-05-10T06:50:32;9.17;;;2.87;;
16979;SDS011;42288;52.182;21.156;2023-05-10T06:52:58;6.43;;;2.93;;
16979;SDS011;42288;52.182;21.156;2023-05-10T06:55:24;6.77;;;3.03;;
16979;SDS011;42288;52.182;21.156;2023-05-10T06:57:50;9.27;;;2.77;;
16979;SDS011;42288;52.182;21.156;2023-05-10T07:00:16;3.73;;;2.17;;
16979;SDS011;42288;52.182;21.156;2023-05-10T07:02:42;4.67;;;2.60;;
16979;SDS011;42288;52.182;21.156;2023-05-10T07:05:08;4.87;;;2.63;;
16979;SDS011;42288;52.182;21.156;2023-05-10T07:07:34;3.10;;;2.23;;
16979;SDS011;42288;52.182;21.156;2023-05-10T07:10:00;6.23;;;2.90;;
16979;SDS011;42288;52.182;21.156;2023-05-10T07:12:25;4.00;;;2.50;;
16979;SDS011;42288;52.182;21.156;2023-05-10T07:14:51;6.40;;;2.30;;
16979;SDS011;42288;52.182;21.156;2023-05-10T07:17:17;6.70;;;2.57;;
16979;SDS011;42288;52.182;21.156;2023-05-10T07:19:42;5.20;;;2.23;;
16979;SDS011;42288;52.182;21.156;2023-05-10T07:22:08;7.77;;;2.20;;
16979;SDS011;42288;52.182;21.156;2023-05-10T07:24:35;6.70;;;2.40;;
16979;SDS011;42288;52.182;21.156;2023-05-10T07:27:01;5.67;;;2.20;;
16979;SDS011;42288;52.182;21.156;2023-05-10T07:29:26;4.43;;;2.10;;
16979;SDS011;42288;52.182;21.156;2023-05-10T07:31:53;7.70;;;2.30;;
16979;SDS011;42288;52.182;21.156;2023-05-10T07:34:19;6.20;;;2.07;;
16979;SDS011;42288;52.182;21.156;2023-05-10T07:36:44;3.73;;;2.20;;
16979;SDS011;42288;52.182;21.156;2023-05-10T07:39:10;6.43;;;2.20;;
16979;SDS011;42288;52.182;21.156;2023-05-10T07:41:35;9.23;;;2.50;;
16979;SDS011;42288;52.182;21.156;2023-05-10T07:44:02;3.43;;;2.03;;
16979;SDS011;42288;52.182;21.156;2023-05-10T07:46:28;6.93;;;2.37;;
16979;SDS011;42288;52.182;21.156;2023-05-10T07:48:54;3.17;;;1.90;;
16979;SDS011;42288;52.182;21.156;2023-05-10T07:51:20;10.37;;;2.30;;
16979;SDS011;42288;52.182;21.156;2023-05-10T07:53:46;3.30;;;2.03;;
16979;SDS011;42288;52.182;21.156;2023-05-10T07:56:24;5.57;;;2.00;;
16979;SDS011;42288;52.182;21.156;2023-05-10T07:59:00;10.30;;;2.77;;
16979;SDS011;42288;52.182;21.156;2023-05-10T08:01:29;4.70;;;2.30;;
16979;SDS011;42288;52.182;21.156;2023-05-10T08:03:59;10.67;;;2.63;;
16979;SDS011;42288;52.182;21.156;2023-05-10T08:06:26;7.17;;;2.10;;
16979;SDS011;42288;52.182;21.156;2023-05-10T08:08:54;5.63;;;2.17;;
16979;SDS011;42288;52.182;21.156;2023-05-10T08:11:20;9.27;;;2.67;;
16979;SDS011;42288;52.182;21.156;2023-05-10T08:13:47;10.50;;;3.30;;
16979;SDS011;42288;52.182;21.156;2023-05-10T08:16:14;7.37;;;2.20;;
16979;SDS011;42288;52.182;21.156;2023-05-10T08:18:40;5.07;;;2.00;;
16979;SDS011;42288;52.182;21.156;2023-05-10T08:21:06;6.83;;;2.20;;
16979;SDS011;42288;52.182;21.156;2023-05-10T08:23:31;8.30;;;2.40;;
16979;SDS011;42288;52.182;21.156;2023-05-10T08:25:57;6.17;;;2.20;;
16979;SDS011;42288;52.182;21.156;2023-05-10T08:28:23;7.37;;;2.07;;
16979;SDS011;42288;52.182;21.156;2023-05-10T08:30:49;7.57;;;2.40;;
16979;SDS011;42288;52.182;21.156;2023-05-10T08:33:15;4.80;;;2.27;;
16979;SDS011;42288;52.182;21.156;2023-05-10T08:35:42;3.73;;;2.30;;
16979;SDS011;42288;52.182;21.156;2023-05-10T08:38:07;6.60;;;2.30;;
16979;SDS011;42288;52.182;21.156;2023-05-10T08:40:33;6.23;;;2.40;;
16979;SDS011;42288;52.182;21.156;2023-05-10T08:43:04;4.97;;;2.40;;
16979;SDS011;42288;52.182;21.156;2023-05-10T08:45:37;5.73;;;2.10;;
16979;SDS011;42288;52.182;21.156;2023-05-10T08:48:05;7.33;;;2.30;;
16979;SDS011;42288;52.182;21.156;2023-05-10T08:50:32;6.97;;;2.17;;
16979;SDS011;42288;52.182;21.156;2023-05-10T08:53:02;9.93;;;2.50;;
16979;SDS011;42288;52.182;21.156;2023-05-10T08:55:30;7.30;;;2.13;;
16979;SDS011;42288;52.182;21.156;2023-05-10T08:57:57;5.23;;;2.30;;
16979;SDS011;42288;52.182;21.156;2023-05-10T09:00:23;17.27;;;2.90;;
16979;SDS011;42288;52.182;21.156;2023-05-10T09:02:49;7.50;;;2.17;;
16979;SDS011;42288;52.182;21.156;2023-05-10T09:05:15;4.10;;;2.13;;
16979;SDS011;42288;52.182;21.156;2023-05-10T09:07:42;6.53;;;2.30;;
16979;SDS011;42288;52.182;21.156;2023-05-10T09:10:08;9.53;;;2.30;;
16979;SDS011;42288;52.182;21.156;2023-05-10T09:12:35;3.57;;;2.07;;
16979;SDS011;42288;52.182;21.156;2023-05-10T09:15:01;4.77;;;2.17;;
16979;SDS011;42288;52.182;21.156;2023-05-10T09:17:28;5.33;;;2.50;;
16979;SDS011;42288;52.182;21.156;2023-05-10T09:20:01;4.57;;;2.33;;
16979;SDS011;42288;52.182;21.156;2023-05-10T09:22:29;6.40;;;2.10;;
16979;SDS011;42288;52.182;21.156;2023-05-10T09:25:08;6.20;;;2.53;;
16979;SDS011;42288;52.182;21.156;2023-05-10T09:27:38;5.33;;;2.10;;
16979;SDS011;42288;52.182;21.156;2023-05-10T09:30:06;5.67;;;2.50;;
16979;SDS011;42288;52.182;21.156;2023-05-10T09:32:36;5.00;;;2.00;;
16979;SDS011;42288;52.182;21.156;2023-05-10T09:35:09;5.20;;;2.20;;
16979;SDS011;42288;52.182;21.156;2023-05-10T09:37:39;4.70;;;2.10;;
16979;SDS011;42288;52.182;21.156;2023-05-10T09:40:11;3.60;;;2.40;;
16979;SDS011;42288;52.182;21.156;2023-05-10T09:42:38;6.63;;;2.87;;
16979;SDS011;42288;52.182;21.156;2023-05-10T09:45:05;3.17;;;1.90;;
16979;SDS011;42288;52.182;21.156;2023-05-10T09:47:35;2.80;;;1.77;;
16979;SDS011;42288;52.182;21.156;2023-05-10T09:50:02;13.30;;;2.67;;
16979;SDS011;42288;52.182;21.156;2023-05-10T09:52:29;8.43;;;2.00;;
16979;SDS011;42288;52.182;21.156;2023-05-10T09:54:56;10.30;;;2.40;;
16979;SDS011;42288;52.182;21.156;2023-05-10T09:57:22;6.53;;;2.47;;
16979;SDS011;42288;52.182;21.156;2023-05-10T09:59:49;5.67;;;2.57;;
16979;SDS011;42288;52.182;21.156;2023-05-10T10:02:15;8.17;;;2.33;;
16979;SDS011;42288;52.182;21.156;2023-05-10T10:04:42;4.83;;;2.27;;
16979;SDS011;42288;52.182;21.156;2023-05-10T10:07:07;4.57;;;2.20;;
16979;SDS011;42288;52.182;21.156;2023-05-10T10:09:34;7.20;;;2.30;;
16979;SDS011;42288;52.182;21.156;2023-05-10T10:12:00;6.67;;;2.30;;
16979;SDS011;42288;52.182;21.156;2023-05-10T10:14:27;4.47;;;2.00;;
16979;SDS011;42288;52.182;21.156;2023-05-10T10:16:54;5.17;;;2.00;;
16979;SDS011;42288;52.182;21.156;2023-05-10T10:19:20;3.20;;;2.10;;
16979;SDS011;42288;52.182;21.156;2023-05-10T10:21:47;6.43;;;2.53;;
16979;SDS011;42288;52.182;21.156;2023-05-10T10:24:14;4.30;;;2.27;;
16979;SDS011;42288;52.182;21.156;2023-05-10T10:26:40;8.37;;;2.10;;
16979;SDS011;42288;52.182;21.156;2023-05-10T10:31:46;5.87;;;1.80;;
16979;SDS011;42288;52.182;21.156;2023-05-10T10:34:32;10.07;;;2.50;;
16979;SDS011;42288;52.182;21.156;2023-05-10T10:36:57;8.20;;;2.40;;
16979;SDS011;42288;52.182;21.156;2023-05-10T10:39:29;9.93;;;2.40;;
16979;SDS011;42288;52.182;21.156;2023-05-10T10:41:56;6.30;;;2.13;;
16979;SDS011;42288;52.182;21.156;2023-05-10T10:44:23;7.67;;;2.27;;
16979;SDS011;42288;52.182;21.156;2023-05-10T10:49:38;6.47;;;2.17;;
16979;SDS011;42288;52.182;21.156;2023-05-10T10:54:49;8.70;;;2.13;;
16979;SDS011;42288;52.182;21.156;2023-05-10T11:08:09;16.20;;;2.80;;
16979;SDS011;42288;52.182;21.156;2023-05-10T11:10:35;8.10;;;2.30;;
16979;SDS011;42288;52.182;21.156;2023-05-10T11:13:01;7.15;;;2.00;;
16979;SDS011;42288;52.182;21.156;2023-05-10T11:15:29;5.20;;;1.90;;
16979;SDS011;42288;52.182;21.156;2023-05-10T11:20:43;9.02;;;2.58;;
16979;SDS011;42288;52.182;21.156;2023-05-10T11:23:14;4.45;;;2.13;;
16979;SDS011;42288;52.182;21.156;2023-05-10T11:25:42;11.05;;;2.47;;
16979;SDS011;42288;52.182;21.156;2023-05-10T11:28:09;10.77;;;2.50;;
16979;SDS011;42288;52.182;21.156;2023-05-10T11:30:36;8.63;;;2.60;;
16979;SDS011;42288;52.182;21.156;2023-05-10T11:33:03;9.90;;;2.13;;
16979;SDS011;42288;52.182;21.156;2023-05-10T11:35:28;6.43;;;2.17;;
16979;SDS011;42288;52.182;21.156;2023-05-10T11:37:54;5.70;;;2.30;;
16979;SDS011;42288;52.182;21.156;2023-05-10T11:40:21;7.80;;;2.10;;
16979;SDS011;42288;52.182;21.156;2023-05-10T11:42:49;10.03;;;2.90;;
16979;SDS011;42288;52.182;21.156;2023-05-10T11:45:15;7.13;;;1.90;;
16979;SDS011;42288;52.182;21.156;2023-05-10T11:47:41;5.83;;;2.47;;
16979;SDS011;42288;52.182;21.156;2023-05-10T11:50:08;10.17;;;2.30;;
16979;SDS011;42288;52.182;21.156;2023-05-10T11:52:35;11.17;;;2.50;;
16979;SDS011;42288;52.182;21.156;2023-05-10T11:55:02;7.50;;;1.80;;
16979;SDS011;42288;52.182;21.156;2023-05-10T11:57:28;10.30;;;2.30;;
16979;SDS011;42288;52.182;21.156;2023-05-10T11:59:56;9.07;;;1.90;;
16979;SDS011;42288;52.182;21.156;2023-05-10T12:02:22;11.27;;;2.33;;
16979;SDS011;42288;52.182;21.156;2023-05-10T12:04:48;9.07;;;2.33;;
16979;SDS011;42288;52.182;21.156;2023-05-10T12:07:15;12.90;;;3.10;;
16979;SDS011;42288;52.182;21.156;2023-05-10T12:09:42;8.00;;;2.33;;
16979;SDS011;42288;52.182;21.156;2023-05-10T12:12:10;9.87;;;2.90;;
16979;SDS011;42288;52.182;21.156;2023-05-10T12:14:40;7.03;;;2.07;;
16979;SDS011;42288;52.182;21.156;2023-05-10T12:17:06;8.87;;;2.07;;
16979;SDS011;42288;52.182;21.156;2023-05-10T12:19:39;5.50;;;2.10;;
16979;SDS011;42288;52.182;21.156;2023-05-10T12:22:05;9.33;;;2.20;;
16979;SDS011;42288;52.182;21.156;2023-05-10T12:24:33;4.97;;;2.50;;
16979;SDS011;42288;52.182;21.156;2023-05-10T12:27:04;7.60;;;2.10;;
16979;SDS011;42288;52.182;21.156;2023-05-10T12:29:30;5.23;;;2.27;;
16979;SDS011;42288;52.182;21.156;2023-05-10T12:31:56;6.17;;;2.10;;
16979;SDS011;42288;52.182;21.156;2023-05-10T12:34:33;8.37;;;1.90;;
16979;SDS011;42288;52.182;21.156;2023-05-10T12:37:01;9.63;;;2.00;;
16979;SDS011;42288;52.182;21.156;2023-05-10T12:39:38;4.83;;;1.97;;
16979;SDS011;42288;52.182;21.156;2023-05-10T12:42:12;5.50;;;2.07;;
16979;SDS011;42288;52.182;21.156;2023-05-10T12:44:38;6.17;;;2.17;;
16979;SDS011;42288;52.182;21.156;2023-05-10T12:47:04;7.77;;;2.13;;
16979;SDS011;42288;52.182;21.156;2023-05-10T12:49:30;4.00;;;2.10;;
16979;SDS011;42288;52.182;21.156;2023-05-10T12:51:56;6.87;;;2.23;;
16979;SDS011;42288;52.182;21.156;2023-05-10T12:54:22;5.03;;;2.27;;
16979;SDS011;42288;52.182;21.156;2023-05-10T12:56:47;5.27;;;2.53;;
16979;SDS011;42288;52.182;21.156;2023-05-10T12:59:13;5.50;;;2.50;;
16979;SDS011;42288;52.182;21.156;2023-05-10T13:01:38;8.43;;;2.93;;
16979;SDS011;42288;52.182;21.156;2023-05-10T13:04:04;11.97;;;2.60;;
16979;SDS011;42288;52.182;21.156;2023-05-10T13:06:29;4.60;;;2.23;;
16979;SDS011;42288;52.182;21.156;2023-05-10T13:08:55;6.47;;;2.67;;
16979;SDS011;42288;52.182;21.156;2023-05-10T13:11:22;4.17;;;2.50;;
16979;SDS011;42288;52.182;21.156;2023-05-10T13:13:48;6.87;;;2.33;;
16979;SDS011;42288;52.182;21.156;2023-05-10T13:16:13;9.07;;;2.43;;
16979;SDS011;42288;52.182;21.156;2023-05-10T13:18:39;4.37;;;2.17;;
16979;SDS011;42288;52.182;21.156;2023-05-10T13:21:04;3.27;;;1.87;;
16979;SDS011;42288;52.182;21.156;2023-05-10T13:23:30;6.37;;;2.80;;
16979;SDS011;42288;52.182;21.156;2023-05-10T13:25:56;5.93;;;2.20;;
16979;SDS011;42288;52.182;21.156;2023-05-10T13:28:21;7.03;;;1.90;;
16979;SDS011;42288;52.182;21.156;2023-05-10T13:30:47;3.70;;;2.07;;
16979;SDS011;42288;52.182;21.156;2023-05-10T13:33:13;5.77;;;1.93;;
16979;SDS011;42288;52.182;21.156;2023-05-10T13:35:38;5.87;;;2.20;;
16979;SDS011;42288;52.182;21.156;2023-05-10T13:38:04;6.90;;;2.10;;
16979;SDS011;42288;52.182;21.156;2023-05-10T13:40:32;5.43;;;2.30;;
16979;SDS011;42288;52.182;21.156;2023-05-10T13:42:58;6.87;;;2.20;;
16979;SDS011;42288;52.182;21.156;2023-05-10T13:45:24;5.07;;;2.37;;
16979;SDS011;42288;52.182;21.156;2023-05-10T13:47:49;7.13;;;2.25;;
16979;SDS011;42288;52.182;21.156;2023-05-10T13:50:16;4.68;;;1.85;;
16979;SDS011;42288;52.182;21.156;2023-05-10T13:52:41;4.32;;;2.20;;
16979;SDS011;42288;52.182;21.156;2023-05-10T13:55:07;13.97;;;2.17;;
16979;SDS011;42288;52.182;21.156;2023-05-10T13:57:33;3.53;;;1.90;;
16979;SDS011;42288;52.182;21.156;2023-05-10T14:00:00;3.22;;;1.85;;
16979;SDS011;42288;52.182;21.156;2023-05-10T14:02:26;5.88;;;2.10;;
16979;SDS011;42288;52.182;21.156;2023-05-10T14:04:52;3.40;;;2.00;;
16979;SDS011;42288;52.182;21.156;2023-05-10T14:07:17;5.50;;;2.10;;
16979;SDS011;42288;52.182;21.156;2023-05-10T14:09:44;8.40;;;2.40;;
16979;SDS011;42288;52.182;21.156;2023-05-10T14:12:09;5.28;;;1.95;;
16979;SDS011;42288;52.182;21.156;2023-05-10T14:14:35;2.17;;;1.65;;
16979;SDS011;42288;52.182;21.156;2023-05-10T14:17:00;7.38;;;1.98;;
16979;SDS011;42288;52.182;21.156;2023-05-10T14:19:26;12.97;;;4.70;;
16979;SDS011;42288;52.182;21.156;2023-05-10T14:21:52;8.95;;;3.45;;
16979;SDS011;42288;52.182;21.156;2023-05-10T14:24:18;7.00;;;2.10;;
16979;SDS011;42288;52.182;21.156;2023-05-10T14:26:43;9.50;;;2.50;;
16979;SDS011;42288;52.182;21.156;2023-05-10T14:29:09;10.03;;;3.00;;
16979;SDS011;42288;52.182;21.156;2023-05-10T14:31:35;4.23;;;2.13;;
16979;SDS011;42288;52.182;21.156;2023-05-10T14:34:01;14.33;;;6.00;;
16979;SDS011;42288;52.182;21.156;2023-05-10T14:36:26;11.40;;;4.87;;
16979;SDS011;42288;52.182;21.156;2023-05-10T14:38:52;11.97;;;3.27;;
16979;SDS011;42288;52.182;21.156;2023-05-10T14:41:17;9.80;;;2.50;;
16979;SDS011;42288;52.182;21.156;2023-05-10T14:43:43;8.03;;;2.10;;
16979;SDS011;42288;52.182;21.156;2023-05-10T14:46:08;6.57;;;2.10;;
16979;SDS011;42288;52.182;21.156;2023-05-10T14:48:34;5.50;;;2.03;;
16979;SDS011;42288;52.182;21.156;2023-05-10T14:51:00;6.95;;;2.25;;
16979;SDS011;42288;52.182;21.156;2023-05-10T14:53:26;16.55;;;2.47;;
16979;SDS011;42288;52.182;21.156;2023-05-10T14:55:52;7.83;;;2.03;;
16979;SDS011;42288;52.182;21.156;2023-05-10T14:58:17;3.60;;;1.80;;
16979;SDS011;42288;52.182;21.156;2023-05-10T15:00:43;5.17;;;1.97;;
16979;SDS011;42288;52.182;21.156;2023-05-10T15:03:09;5.03;;;2.10;;
16979;SDS011;42288;52.182;21.156;2023-05-10T15:05:34;6.13;;;1.83;;
16979;SDS011;42288;52.182;21.156;2023-05-10T15:08:02;7.07;;;2.57;;